createdAt,value
2023-02-17T00:01:38.315Z,63.40
2023-02-17T00:04:06.984Z,62.20
2023-02-17T00:06:35.623Z,56.70
2023-02-17T00:09:04.279Z,61.70
2023-02-17T00:11:32.829Z,65.40
2023-02-17T00:14:01.461Z,58.30
2023-02-17T00:16:30.259Z,60.10
2023-02-17T00:19:01.851Z,62.40
2023-02-17T00:21:32.763Z,56.60
2023-02-17T00:24:01.439Z,51.60
2023-02-17T00:26:30.096Z,52.80
2023-02-17T00:28:59.230Z,60.00
2023-02-17T00:31:27.837Z,61.00
2023-02-17T00:33:56.759Z,54.50
2023-02-17T00:36:27.175Z,52.50
2023-02-17T00:38:58.189Z,59.00
2023-02-17T00:41:28.983Z,64.70
2023-02-17T00:43:59.674Z,56.50
2023-02-17T00:46:28.607Z,52.30
2023-02-17T00:48:57.856Z,45.60
2023-02-17T00:51:26.710Z,54.30
2023-02-17T00:53:55.231Z,56.20
2023-02-17T00:56:23.755Z,53.30
2023-02-17T00:58:52.247Z,49.60
2023-02-17T01:01:20.698Z,35.10
2023-02-17T01:03:49.143Z,49.20
2023-02-17T01:06:31.073Z,51.40
2023-02-17T01:08:59.838Z,49.50
2023-02-17T01:11:31.731Z,53.50
2023-02-17T01:14:02.188Z,48.20
2023-02-17T01:16:44.540Z,53.10
2023-02-17T01:19:17.998Z,48.50
2023-02-17T01:21:50.018Z,49.80
2023-02-17T01:24:18.432Z,47.30
2023-02-17T01:26:46.966Z,44.20
2023-02-17T01:29:15.464Z,45.30
2023-02-17T01:31:46.065Z,45.70
2023-02-17T01:34:14.789Z,43.60
2023-02-17T01:36:43.289Z,38.70
2023-02-17T01:39:15.484Z,40.20
2023-02-17T01:41:44.552Z,45.80
2023-02-17T01:44:18.710Z,42.90
2023-02-17T01:46:55.378Z,47.10
2023-02-17T01:49:33.349Z,41.20
2023-02-17T01:52:22.159Z,41.00
2023-02-17T01:55:02.867Z,44.80
2023-02-17T01:57:38.480Z,38.90
2023-02-17T02:00:10.992Z,37.70
2023-02-17T02:02:46.193Z,38.30
2023-02-17T02:05:17.057Z,39.90
2023-02-17T02:07:48.607Z,34.60
2023-02-17T02:10:19.132Z,31.50
2023-02-17T02:12:47.708Z,35.50
2023-02-17T02:15:20.119Z,33.90
2023-02-17T02:18:30.011Z,40.40
2023-02-17T02:21:25.972Z,33.00
2023-02-17T02:24:25.501Z,34.50
2023-02-17T02:27:28.803Z,34.90
2023-02-17T02:32:54.446Z,31.80
2023-02-17T02:35:57.734Z,31.50
2023-02-17T02:38:40.979Z,28.20
2023-02-17T02:41:29.726Z,32.60
2023-02-17T02:43:58.317Z,36.40
2023-02-17T02:46:27.051Z,30.10
2023-02-17T02:48:55.636Z,29.40
2023-02-17T02:52:02.947Z,25.60
2023-02-17T02:54:52.456Z,32.40
2023-02-17T02:57:58.532Z,27.40
2023-02-17T03:00:41.378Z,24.70
2023-02-17T03:03:30.400Z,26.40
2023-02-17T03:06:23.154Z,29.10
2023-02-17T03:09:21.682Z,26.90
2023-02-17T03:11:52.176Z,26.30
2023-02-17T03:14:23.169Z,29.70
2023-02-17T03:16:52.945Z,27.10
2023-02-17T03:19:25.422Z,28.90
2023-02-17T03:22:24.702Z,27.50
2023-02-17T03:24:53.132Z,20.20
2023-02-17T03:27:21.634Z,24.30
2023-02-17T03:29:50.217Z,20.40
2023-02-17T03:32:20.680Z,20.70
2023-02-17T03:34:49.299Z,20.70
2023-02-17T03:37:17.971Z,21.80
2023-02-17T03:39:46.696Z,24.20
2023-02-17T03:42:15.190Z,20.60
2023-02-17T03:44:43.691Z,22.00
2023-02-17T03:47:12.255Z,22.20
2023-02-17T03:49:40.734Z,25.20
2023-02-17T03:52:10.475Z,24.00
2023-02-17T03:54:38.900Z,22.20
2023-02-17T03:57:07.389Z,23.20
2023-02-17T03:59:36.256Z,23.20
2023-02-17T04:02:04.715Z,22.50
2023-02-17T04:04:33.159Z,18.60
2023-02-17T04:07:01.636Z,18.90
2023-02-17T04:09:30.264Z,24.60
2023-02-17T04:11:58.720Z,25.70
2023-02-17T04:14:27.163Z,22.10
2023-02-17T04:16:55.811Z,20.20
2023-02-17T04:19:24.313Z,22.00
2023-02-17T04:21:52.990Z,25.10
2023-02-17T04:24:21.581Z,26.70
2023-02-17T04:26:50.088Z,24.50
2023-02-17T04:29:18.590Z,26.60
2023-02-17T04:31:47.238Z,22.60
2023-02-17T04:34:15.825Z,22.70
2023-02-17T04:36:44.663Z,26.00
2023-02-17T04:39:13.797Z,21.40
2023-02-17T04:41:42.631Z,25.80
2023-02-17T04:44:11.691Z,21.00
2023-02-17T04:46:41.304Z,29.40
2023-02-17T04:49:11.414Z,18.20
2023-02-17T04:51:41.922Z,24.90
2023-02-17T04:54:11.195Z,22.90
2023-02-17T04:56:41.192Z,24.10
2023-02-17T04:59:10.097Z,19.60
2023-02-17T05:01:39.371Z,22.50
2023-02-17T05:04:09.406Z,25.80
2023-02-17T05:06:38.066Z,28.70
2023-02-17T05:09:06.799Z,27.10
2023-02-17T05:11:35.939Z,27.50
2023-02-17T05:14:04.496Z,32.90
2023-02-17T05:16:33.201Z,28.30
2023-02-17T05:19:02.705Z,30.40
2023-02-17T05:21:31.744Z,28.20
2023-02-17T05:24:00.643Z,29.50
2023-02-17T05:26:29.445Z,28.40
2023-02-17T05:28:58.560Z,32.70
2023-02-17T05:31:28.826Z,30.70
2023-02-17T05:33:57.787Z,31.30
2023-02-17T05:36:26.761Z,33.30
2023-02-17T05:38:55.429Z,30.20
2023-02-17T05:41:23.985Z,35.70
2023-02-17T05:43:52.706Z,26.00
2023-02-17T05:46:23.054Z,33.50
2023-02-17T05:48:51.974Z,28.40
2023-02-17T05:51:21.329Z,29.00
2023-02-17T05:53:49.894Z,34.20
2023-02-17T05:56:18.562Z,26.40
2023-02-17T05:58:47.316Z,28.90
2023-02-17T06:01:15.900Z,25.70
2023-02-17T06:03:44.725Z,25.20
2023-02-17T06:06:13.303Z,24.50
2023-02-17T06:08:41.778Z,23.40
2023-02-17T06:11:10.417Z,26.50
2023-02-17T06:13:39.016Z,27.40
2023-02-17T06:16:07.852Z,25.10
2023-02-17T06:18:36.536Z,33.60
2023-02-17T06:21:05.565Z,29.10
2023-02-17T06:23:34.211Z,31.00
2023-02-17T06:26:02.823Z,30.60
2023-02-17T06:28:31.669Z,29.80
2023-02-17T06:31:01.055Z,34.70
2023-02-17T06:33:29.510Z,35.00
2023-02-17T06:35:58.049Z,34.40
2023-02-17T06:38:26.668Z,47.20
2023-02-17T06:40:55.340Z,39.40
2023-02-17T06:43:23.915Z,45.80
2023-02-17T06:45:52.814Z,38.00
2023-02-17T06:48:21.432Z,39.90
2023-02-17T06:50:50.638Z,40.20
2023-02-17T06:53:19.133Z,43.10
2023-02-17T06:55:47.683Z,44.10
2023-02-17T06:58:16.136Z,42.20
2023-02-17T07:00:44.679Z,44.80
2023-02-17T07:03:13.385Z,47.30
2023-02-17T07:05:41.955Z,49.10
2023-02-17T07:08:10.549Z,47.60
2023-02-17T07:10:39.151Z,54.10
2023-02-17T07:13:07.736Z,42.80
2023-02-17T07:15:36.236Z,43.80
2023-02-17T07:18:05.315Z,43.30
2023-02-17T07:20:34.004Z,50.70
2023-02-17T07:23:02.649Z,51.30
2023-02-17T07:25:31.274Z,47.80
2023-02-17T07:28:00.479Z,60.50
2023-02-17T07:30:29.279Z,52.20
2023-02-17T07:32:57.951Z,49.80
2023-02-17T07:35:26.483Z,49.80
2023-02-17T07:37:57.772Z,54.40
2023-02-17T07:40:28.162Z,64.50
2023-02-17T07:42:58.280Z,52.70
2023-02-17T07:45:27.110Z,48.60
2023-02-17T07:47:56.017Z,52.00
2023-02-17T07:50:24.408Z,56.90
2023-02-17T07:52:52.939Z,56.40
2023-02-17T07:55:21.550Z,55.00
2023-02-17T07:57:50.263Z,52.20
2023-02-17T08:00:19.164Z,53.90
2023-02-17T08:02:47.685Z,54.50
2023-02-17T08:05:16.273Z,59.80
2023-02-17T08:07:44.751Z,47.20
2023-02-17T08:10:32.209Z,51.80
2023-02-17T08:13:19.061Z,53.40
2023-02-17T08:15:47.625Z,51.90
2023-02-17T08:18:16.142Z,68.90
2023-02-17T08:20:45.085Z,51.40
2023-02-17T08:23:13.524Z,45.30
2023-02-17T08:25:42.336Z,44.20
2023-02-17T08:28:11.808Z,40.50
2023-02-17T08:30:40.974Z,58.30
2023-02-17T08:33:09.866Z,69.00
2023-02-17T08:35:38.675Z,70.70
2023-02-17T08:38:07.347Z,38.50
2023-02-17T08:40:35.958Z,26.90
2023-02-17T08:43:08.141Z,22.50
2023-02-17T08:45:37.220Z,17.10
2023-02-17T08:48:05.941Z,18.60
2023-02-17T08:50:35.279Z,19.60
2023-02-17T08:53:05.873Z,15.90
2023-02-17T08:55:48.554Z,21.40
2023-02-17T08:58:17.930Z,21.70
2023-02-17T09:00:46.569Z,24.90
2023-02-17T09:03:15.619Z,23.40
2023-02-17T09:05:44.330Z,20.10
2023-02-17T09:08:12.981Z,23.80
2023-02-17T09:10:41.515Z,20.40
2023-02-17T09:13:10.043Z,19.50
2023-02-17T09:15:38.945Z,17.70
2023-02-17T09:18:07.580Z,20.60
2023-02-17T09:20:39.709Z,21.00
2023-02-17T09:23:08.529Z,19.50
2023-02-17T09:25:37.207Z,20.10
2023-02-17T09:28:06.471Z,23.50
2023-02-17T09:30:35.005Z,22.00
2023-02-17T09:33:05.546Z,19.20
2023-02-17T09:35:34.537Z,17.40
2023-02-17T09:38:03.662Z,17.00
2023-02-17T09:40:50.264Z,14.50
2023-02-17T09:43:31.473Z,12.70
2023-02-17T09:46:09.710Z,17.40
2023-02-17T09:48:40.050Z,12.50
2023-02-17T09:51:20.165Z,18.30
2023-02-17T09:54:11.010Z,14.20
2023-02-17T09:56:46.332Z,20.40
2023-02-17T09:59:49.282Z,14.20
2023-02-17T10:03:06.802Z,17.30
2023-02-17T10:05:42.398Z,25.20
2023-02-17T10:08:25.285Z,15.80
2023-02-17T10:13:29.825Z,20.30
2023-02-17T10:16:05.384Z,17.90
2023-02-17T10:18:46.944Z,21.50
2023-02-17T10:21:25.801Z,16.30
2023-02-17T10:23:54.399Z,19.20
2023-02-17T10:26:50.116Z,19.40
2023-02-17T10:30:38.542Z,24.00
2023-02-17T10:33:32.837Z,17.00
2023-02-17T10:36:22.703Z,19.30
2023-02-17T10:38:59.652Z,23.00
2023-02-17T10:41:39.180Z,17.90
2023-02-17T10:44:17.153Z,25.10
2023-02-17T10:46:48.604Z,19.20
2023-02-17T10:49:29.744Z,18.20
2023-02-17T10:52:12.140Z,18.00
2023-02-17T10:55:22.283Z,21.90
2023-02-17T10:58:05.674Z,19.60
2023-02-17T11:03:05.080Z,19.10
2023-02-17T11:05:35.473Z,21.80
2023-02-17T11:08:24.046Z,21.00
2023-02-17T11:11:15.287Z,20.40
2023-02-17T11:14:27.853Z,25.90
2023-02-17T11:17:14.373Z,21.30
2023-02-17T11:19:42.923Z,22.10
2023-02-17T11:22:33.009Z,19.50
2023-02-17T11:25:28.691Z,18.20
2023-02-17T11:28:00.338Z,20.30
2023-02-17T11:30:31.811Z,21.50
2023-02-17T11:33:15.504Z,18.30
2023-02-17T11:35:55.806Z,20.70
2023-02-17T11:38:41.363Z,22.80
2023-02-17T11:41:11.258Z,17.90
2023-02-17T11:43:51.276Z,23.60
2023-02-17T11:46:53.536Z,25.80
2023-02-17T11:49:50.104Z,22.70
2023-02-17T11:52:44.320Z,21.50
2023-02-17T11:55:24.790Z,23.30
2023-02-17T11:58:39.457Z,21.10
2023-02-17T12:01:26.142Z,25.00
2023-02-17T12:04:13.628Z,18.70
2023-02-17T12:07:14.505Z,25.00
2023-02-17T12:09:49.496Z,20.00
2023-02-17T12:12:46.416Z,22.20
2023-02-17T12:15:20.768Z,23.20
2023-02-17T12:18:27.178Z,15.90
2023-02-17T12:21:29.864Z,26.40
2023-02-17T12:24:17.149Z,21.50
2023-02-17T12:27:12.155Z,19.80
2023-02-17T12:30:24.120Z,25.80
2023-02-17T12:33:32.637Z,24.60
2023-02-17T12:36:14.892Z,24.90
2023-02-17T12:39:23.167Z,19.20
2023-02-17T12:42:54.147Z,21.60
2023-02-17T12:45:40.351Z,24.10
2023-02-17T12:48:18.814Z,23.00
2023-02-17T12:51:37.125Z,23.70
2023-02-17T12:54:11.641Z,30.90
2023-02-17T12:57:11.030Z,17.50
2023-02-17T12:59:52.865Z,24.70
2023-02-17T13:02:25.393Z,23.10
2023-02-17T13:05:03.983Z,23.50
2023-02-17T13:08:06.533Z,21.80
2023-02-17T13:10:38.916Z,32.70
2023-02-17T13:13:30.265Z,26.00
2023-02-17T13:16:12.741Z,19.90
2023-02-17T13:18:44.977Z,20.60
2023-02-17T13:21:27.737Z,22.80
2023-02-17T13:26:38.922Z,22.70
2023-02-17T13:29:21.005Z,23.40
2023-02-17T13:31:58.755Z,26.20
2023-02-17T13:34:39.600Z,25.80
2023-02-17T13:37:32.430Z,27.80
2023-02-17T13:40:24.682Z,51.60
2023-02-17T13:42:57.790Z,27.30
2023-02-17T13:45:40.562Z,23.80
2023-02-17T13:48:27.680Z,25.70
2023-02-17T13:51:05.461Z,25.50
2023-02-17T13:53:42.436Z,29.90
2023-02-17T13:56:28.353Z,26.40
2023-02-17T13:59:18.465Z,24.60
2023-02-17T14:01:47.571Z,23.00
2023-02-17T14:04:31.743Z,24.00
2023-02-17T14:07:05.094Z,25.90
2023-02-17T14:09:35.444Z,30.50
2023-02-17T14:12:08.543Z,28.90
2023-02-17T14:14:40.058Z,31.30
2023-02-17T14:18:00.402Z,23.20
2023-02-17T14:20:34.954Z,23.90
2023-02-17T14:23:16.075Z,24.40
2023-02-17T14:25:47.239Z,21.40
2023-02-17T14:28:26.500Z,20.30
2023-02-17T14:30:55.287Z,25.30
2023-02-17T14:33:25.823Z,23.60
2023-02-17T14:36:01.711Z,26.90
2023-02-17T14:38:44.734Z,22.20
2023-02-17T14:43:41.671Z,24.10
2023-02-17T14:46:10.589Z,25.00
2023-02-17T14:48:39.538Z,20.00
2023-02-17T14:51:14.817Z,27.30
2023-02-17T14:53:43.933Z,26.70
2023-02-17T14:56:21.807Z,23.60
2023-02-17T14:58:50.803Z,28.10
2023-02-17T15:01:21.676Z,27.70
2023-02-17T15:03:52.927Z,25.20
2023-02-17T15:06:29.478Z,27.60
2023-02-17T15:09:01.883Z,27.90
2023-02-17T15:11:37.618Z,31.90
2023-02-17T15:14:07.222Z,37.00
2023-02-17T15:16:35.802Z,31.40
2023-02-17T15:19:04.544Z,28.80
2023-02-17T15:21:35.619Z,28.10
2023-02-17T15:24:34.157Z,36.90
2023-02-17T15:27:05.160Z,38.50
2023-02-17T15:29:33.800Z,57.80
2023-02-17T15:32:10.328Z,70.60
2023-02-17T15:34:38.966Z,49.90
2023-02-17T15:37:10.265Z,62.70
2023-02-17T15:39:38.802Z,56.50
2023-02-17T15:42:13.777Z,47.20
2023-02-17T15:44:51.033Z,43.90
2023-02-17T15:47:20.857Z,46.00
2023-02-17T15:49:49.462Z,87.10
2023-02-17T15:52:17.991Z,103.80
2023-02-17T15:54:48.424Z,113.20
2023-02-17T15:57:25.436Z,101.90
2023-02-17T15:59:57.845Z,104.50
2023-02-17T16:02:26.696Z,81.90
2023-02-17T16:04:55.298Z,91.60
2023-02-17T16:07:24.056Z,100.10
2023-02-17T16:09:52.599Z,59.20
2023-02-17T16:12:27.454Z,70.20
2023-02-17T16:14:57.585Z,77.60
2023-02-17T16:17:27.389Z,65.20
2023-02-17T16:19:56.041Z,109.20
2023-02-17T16:22:24.651Z,92.60
2023-02-17T16:24:53.647Z,68.60
2023-02-17T16:27:24.185Z,68.60
2023-02-17T16:29:52.788Z,62.70
2023-02-17T16:32:21.525Z,68.30
2023-02-17T16:34:50.954Z,58.40
2023-02-17T16:37:19.449Z,69.60
2023-02-17T16:39:47.982Z,83.20
2023-02-17T16:42:16.562Z,75.80
2023-02-17T16:44:45.289Z,85.40
2023-02-17T16:47:21.039Z,93.40
2023-02-17T16:49:50.645Z,80.90
2023-02-17T16:52:26.545Z,93.20
2023-02-17T16:55:00.203Z,90.60
2023-02-17T16:57:29.399Z,82.80
2023-02-17T16:59:57.994Z,81.50
2023-02-17T17:02:26.553Z,81.30
2023-02-17T17:04:55.059Z,84.70
2023-02-17T17:07:23.623Z,86.70
2023-02-17T17:10:14.652Z,90.10
2023-02-17T17:12:41.030Z,89.70
2023-02-17T17:15:10.836Z,100.00
2023-02-17T17:17:48.546Z,87.90
2023-02-17T17:20:32.187Z,85.00
2023-02-17T17:23:04.511Z,85.10
2023-02-17T17:25:35.101Z,74.40
2023-02-17T17:28:04.037Z,83.60
2023-02-17T17:30:37.861Z,80.70
2023-02-17T17:33:07.092Z,81.10
2023-02-17T17:35:35.790Z,63.20
2023-02-17T17:38:04.678Z,83.60
2023-02-17T17:40:48.883Z,81.40
2023-02-17T17:43:21.457Z,86.00
2023-02-17T17:45:51.728Z,84.50
2023-02-17T17:48:20.579Z,86.40
2023-02-17T17:50:50.068Z,91.50
2023-02-17T17:53:18.558Z,89.10
2023-02-17T17:55:48.341Z,87.30
2023-02-17T17:58:17.402Z,74.90
2023-02-17T18:00:45.978Z,73.40
2023-02-17T18:03:14.717Z,73.60
2023-02-17T18:05:43.228Z,73.90
2023-02-17T18:08:12.607Z,84.10
2023-02-17T18:10:42.949Z,80.50
2023-02-17T18:13:12.790Z,83.20
2023-02-17T18:15:41.919Z,87.70
2023-02-17T18:18:12.865Z,84.70
2023-02-17T18:20:41.512Z,80.10
2023-02-17T18:23:10.003Z,72.30
2023-02-17T18:25:39.766Z,84.20
2023-02-17T18:28:08.297Z,78.70
2023-02-17T18:30:36.917Z,81.30
2023-02-17T18:33:05.491Z,84.60
2023-02-17T18:35:38.652Z,82.90
2023-02-17T18:38:07.104Z,86.30
2023-02-17T18:40:41.825Z,94.00
2023-02-17T18:43:10.305Z,80.60
2023-02-17T18:45:38.805Z,88.60
2023-02-17T18:48:32.692Z,93.80
2023-02-17T18:51:10.277Z,85.40
2023-02-17T18:53:39.318Z,81.00
2023-02-17T18:56:20.239Z,91.70
2023-02-17T18:58:51.009Z,85.00
2023-02-17T19:01:24.242Z,85.30
2023-02-17T19:03:53.560Z,87.30
2023-02-17T19:06:25.779Z,83.20
2023-02-17T19:08:54.862Z,85.10
2023-02-17T19:11:25.774Z,80.10
2023-02-17T19:13:54.431Z,80.40
2023-02-17T19:16:30.353Z,80.70
2023-02-17T19:19:00.537Z,82.60
2023-02-17T19:21:29.104Z,74.60
2023-02-17T19:23:57.581Z,75.80
2023-02-17T19:26:26.252Z,71.80
2023-02-17T19:28:55.020Z,72.80
2023-02-17T19:31:23.812Z,83.10
2023-02-17T19:33:52.318Z,82.90
2023-02-17T19:36:23.257Z,78.60
2023-02-17T19:38:51.828Z,80.80
2023-02-17T19:41:20.376Z,78.70
2023-02-17T19:43:49.090Z,80.00
2023-02-17T19:46:21.434Z,76.50
2023-02-17T19:48:49.960Z,69.00
2023-02-17T19:51:18.466Z,77.20
2023-02-17T19:53:47.546Z,76.40
2023-02-17T19:56:23.970Z,78.40
2023-02-17T19:58:53.993Z,92.20
2023-02-17T20:01:25.267Z,92.60
2023-02-17T20:03:55.289Z,91.90
2023-02-17T20:06:30.927Z,84.60
2023-02-17T20:09:04.656Z,86.20
2023-02-17T20:11:34.055Z,85.60
2023-02-17T20:14:03.325Z,85.60
2023-02-17T20:16:32.266Z,88.80
2023-02-17T20:19:02.392Z,85.80
2023-02-17T20:21:36.014Z,84.30
2023-02-17T20:24:06.763Z,89.30
2023-02-17T20:26:44.233Z,86.40
2023-02-17T20:29:13.986Z,99.00
2023-02-17T20:31:43.612Z,92.60
2023-02-17T20:34:26.430Z,85.50
2023-02-17T20:36:55.814Z,84.20
2023-02-17T20:39:26.047Z,77.30
2023-02-17T20:41:56.353Z,72.60
2023-02-17T20:44:28.212Z,75.90
2023-02-17T20:46:57.724Z,73.50
2023-02-17T20:49:27.089Z,74.60
2023-02-17T20:51:55.742Z,75.50
2023-02-17T20:54:25.767Z,72.80
2023-02-17T20:56:54.329Z,69.60
2023-02-17T20:59:23.268Z,70.50
2023-02-17T21:01:51.942Z,65.30
2023-02-17T21:04:20.453Z,65.20
2023-02-17T21:06:50.628Z,64.00
2023-02-17T21:09:19.456Z,55.90
2023-02-17T21:11:48.117Z,62.20
2023-02-17T21:14:17.922Z,61.60
2023-02-17T21:16:46.581Z,68.40
2023-02-17T21:19:15.101Z,66.20
2023-02-17T21:21:43.605Z,67.40
2023-02-17T21:24:12.270Z,58.40
2023-02-17T21:26:41.107Z,64.20
2023-02-17T21:29:09.811Z,65.10
2023-02-17T21:31:38.918Z,64.90
2023-02-17T21:34:09.028Z,64.30
2023-02-17T21:36:37.663Z,62.60
2023-02-17T21:39:07.130Z,58.70
2023-02-17T21:41:36.253Z,62.40
2023-02-17T21:44:23.585Z,63.20
2023-02-17T21:46:53.889Z,60.30
2023-02-17T21:49:23.500Z,47.10
2023-02-17T21:53:48.824Z,49.50
2023-02-17T21:56:17.840Z,59.40
2023-02-17T21:58:52.770Z,57.80
2023-02-17T22:01:23.253Z,53.90
2023-02-17T22:03:52.383Z,54.20
2023-02-17T22:06:28.911Z,57.60
2023-02-17T22:08:59.099Z,53.40
2023-02-17T22:11:36.841Z,51.90
2023-02-17T22:14:10.308Z,50.70
2023-02-17T22:16:40.865Z,55.70
2023-02-17T22:22:49.998Z,51.10
2023-02-17T22:25:20.337Z,51.40
2023-02-17T22:27:49.417Z,43.90
2023-02-17T22:30:18.141Z,44.50
2023-02-17T22:32:46.683Z,39.60
2023-02-17T22:35:15.450Z,36.80
2023-02-17T22:37:44.007Z,34.20
2023-02-17T22:40:12.709Z,33.60
2023-02-17T22:42:41.407Z,30.20
2023-02-17T22:45:10.080Z,28.70
2023-02-17T22:47:38.618Z,29.10
2023-02-17T22:50:07.350Z,30.00
2023-02-17T22:52:35.926Z,24.10
2023-02-17T22:55:05.040Z,28.50
2023-02-17T22:57:33.590Z,30.60
2023-02-17T23:00:02.181Z,24.50
2023-02-17T23:02:35.018Z,28.30
2023-02-17T23:05:03.692Z,27.40
2023-02-17T23:07:32.356Z,27.50
2023-02-17T23:10:00.929Z,27.10
2023-02-17T23:12:30.258Z,24.30
2023-02-17T23:14:58.798Z,24.90
2023-02-17T23:17:27.320Z,25.80
2023-02-17T23:19:55.834Z,26.20
2023-02-17T23:22:24.424Z,22.40
2023-02-17T23:24:52.982Z,25.40
2023-02-17T23:27:21.471Z,24.60
2023-02-17T23:29:50.174Z,27.00
2023-02-17T23:32:18.681Z,25.40
2023-02-17T23:34:47.232Z,24.60
2023-02-17T23:37:15.804Z,26.20
2023-02-17T23:39:44.335Z,22.80
2023-02-17T23:42:12.838Z,26.50
2023-02-17T23:44:41.395Z,25.60
2023-02-17T23:47:10.018Z,23.30
2023-02-17T23:49:38.633Z,24.60
2023-02-17T23:52:07.184Z,25.60
2023-02-17T23:54:35.804Z,21.10
2023-02-17T23:57:04.741Z,22.20
2023-02-17T23:59:33.605Z,23.80
